Flight Track Log - Related Links

Times and Time Zones

All times are in EDT time to prevent confusion due to time zone crossing. See the N7963G flight status page for this flight to view local times or setup timezone preferences in your user account.

Time Position Orientation Groundspeed Altitude Reporting Facility
EDT Latitude Longitude Course Direction KTS MPH feet Rate Location/Type
Wed 01:32:00 PM 47.4825 -122.7725 200° South 119 137 900  Level Seattle Center
Wed 01:32:55 PM 47.4650 -122.7819 200° South 67 77 1,600 826 Climbing Seattle Center
Wed 01:33:49 PM 47.4447 -122.7897 195° South 77 89 2,400 776 Climbing Seattle Center
Wed 01:34:51 PM 47.4214 -122.7761 158° South 91 105 3,100 689 Climbing Seattle Center
Wed 01:35:51 PM 47.3981 -122.7625 158° South 89 102 3,800 545 Climbing Seattle Center
Wed 01:36:52 PM 47.3708 -122.7511 164° South 96 110 4,200 148 Climbing Seattle Center
Wed 01:37:53 PM 47.3414 -122.7408 167° South 114 131 4,100  Descending Seattle Center
Wed 01:39:00 PM 47.3122 -122.7306 167° South 102 117 4,200 47 Climbing Seattle Center
Wed 01:40:01 PM 47.2850 -122.7192 164° South 98 113 4,200  Level Seattle Center
Wed 01:41:02 PM 47.2558 -122.7089 167° South 102 117 4,200  Level Seattle Center
Wed 01:42:03 PM 47.2297 -122.6936 158° South 100 115 4,200  Level Seattle Center
Wed 01:43:04 PM 47.2033 -122.6853 168° South 100 115 4,200  Level Seattle Center
Wed 01:44:05 PM 47.1742 -122.6750 167° South 106 122 4,200  Level Seattle Center
Wed 01:45:06 PM 47.1431 -122.6658 169° South 107 123 4,200  Level Seattle Center
Wed 01:46:07 PM 47.1136 -122.6556 167° South 105 121 4,200  Level Seattle Center
Wed 01:47:08 PM 47.0844 -122.6453 167° South 105 121 4,200  Level Seattle Center
Wed 01:48:09 PM 47.0572 -122.6342 164° South 108 124 4,200  Level Seattle Center
Wed 01:49:10 PM 47.0281 -122.6239 166° South 106 122 4,200  Level Seattle Center
Wed 01:50:11 PM 46.9981 -122.6108 163° South 108 124 4,200  Level Seattle Center
Wed 01:51:12 PM 46.9689 -122.6006 166° South 107 123 4,200  Level Seattle Center
Wed 01:52:13 PM 46.9397 -122.5906 167° South 106 122 4,200 -47 Level Seattle Center
Wed 01:53:20 PM 46.9078 -122.5786 166° South 106 122 4,100  Descending Seattle Center
Wed 01:54:15 PM 46.8806 -122.5675 164° South 105 121 4,200 103 Climbing Seattle Center
Wed 01:55:16 PM 46.8531 -122.5725 187° South 115 132 4,300  Climbing Seattle Center
Wed 01:56:11 PM 46.8292 -122.5919 209° Southwest 112 129 4,200 -52 Descending Seattle Center
Wed 01:57:12 PM 46.8044 -122.6181 216° Southwest 111 128 4,200 49 Level Seattle Center
Wed 01:58:13 PM 46.7817 -122.6497 224° Southwest 112 129 4,300  Climbing Seattle Center
Wed 01:59:13 PM 46.7606 -122.6806 225° Southwest 110 127 4,200 -50 Descending Seattle Center
Wed 02:00:14 PM 46.7489 -122.7222 248° West 110 127 4,200  Level Seattle Center
Wed 02:01:15 PM 46.7353 -122.7650 245° Southwest 111 128 4,200  Level Seattle Center
Wed 02:02:16 PM 46.7264 -122.8086 253° West 108 124 4,200  Level Seattle Center
Wed 02:02:46 PM 46.7247 -122.8236 261° West 106 122 4,200  Level Seattle Center
Wed 02:03:17 PM 46.7211 -122.8500 259° West 107 123 4,200 -98 Level Seattle Center
Wed 02:03:47 PM 46.7186 -122.8664 257° West 109 125 4,100  Descending Seattle Center
Wed 02:04:18 PM 46.7161 -122.8914 262° West 106 122 4,200 98 Climbing Seattle Center
Wed 02:04:48 PM 46.7175 -122.9078 277° West 104 120 4,200  Level Seattle Center
Wed 02:05:19 PM 46.7175 -122.9325 270° West 102 117 4,200  Level Seattle Center
Wed 02:05:49 PM 46.7194 -122.9475 281° West 101 116 4,200  Level Seattle Center
Wed 02:06:20 PM 46.7275 -122.9722 295° West 104 120 4,200 -194 Level Seattle Center
Wed 02:06:51 PM 46.7381 -122.9778 340° North 96 110 4,000 -393 Descending Seattle Center
Wed 02:07:21 PM 46.7506 -122.9761 North 95 109 3,800 -393 Descending Seattle Center
Wed 02:07:52 PM 46.7628 -122.9669 27° Northeast 85 98 3,600 -492 Descending Seattle Center
Wed 02:08:22 PM 46.7714 -122.9619 22° Northeast 83 96 3,300 -492 Descending Seattle Center
Wed 02:08:53 PM 46.7858 -122.9564 15° North 88 101 3,100 -492 Descending Seattle Center
Wed 02:09:23 PM 46.7975 -122.9511 17° North 92 106 2,800 -581 Descending Seattle Center
Wed 02:09:55 PM 46.8108 -122.9475 11° North 91 105 2,500 -581 Descending Seattle Center
Wed 02:10:56 PM 46.8400 -122.9453 North 96 110 1,900 -393 Descending Seattle Center
Wed 02:11:57 PM 46.8672 -122.9367 12° North 99 114 1,700 -98 Descending Seattle Center
Wed 02:12:59 PM 46.8906 -122.9275 15° North 90 104 1,700 -195 Level Seattle Center
Wed 02:14:00 PM 46.9169 -122.9183 13° North 97 112 1,300 -344 Descending Seattle Center
Wed 02:15:01 PM 46.9431 -122.9111 11° North 96 110 1,000 -151 Descending Seattle Center
Wed 02:15:59 PM 46.9672 -122.9031 13° North 96 110 1,000 337 Level Seattle Center
Wed 02:16:30 PM 46.9756 -122.8919 42° Northeast 90 104 1,500 923 Climbing Seattle Center
Wed 02:17:04 PM 46.9764 -122.8758 86° East 78 90 2,000 688 Climbing Seattle Center
Wed 02:18:06 PM 46.9797 -122.8392 82° East 84 97 2,600 488 Climbing Seattle Center
Wed 02:19:07 PM 47.0036 -122.8372 North 88 101 3,000 246 Climbing Seattle Center
Wed 02:20:08 PM 47.0286 -122.8344 North 91 105 3,100 146 Climbing Seattle Center
Wed 02:21:10 PM 47.0567 -122.8319 North 94 108 3,300 390 Climbing Seattle Center
Wed 02:22:11 PM 47.0794 -122.8358 353° North 84 97 3,900 344 Climbing Seattle Center
Wed 02:23:12 PM 47.1047 -122.8389 355° North 90 104 4,000 49 Climbing Seattle Center
Wed 02:24:14 PM 47.1306 -122.8433 353° North 93 107 4,000  Level Seattle Center
Wed 02:25:15 PM 47.1592 -122.8461 356° North 97 112 4,000  Level Seattle Center
Wed 02:26:17 PM 47.1844 -122.8508 353° North 93 107 4,000 49 Level Seattle Center
Wed 02:27:18 PM 47.2100 -122.8503 North 91 105 4,100  Climbing Seattle Center
Wed 02:28:20 PM 47.2383 -122.8561 352° North 95 109 4,000 -49 Descending Seattle Center
Wed 02:29:21 PM 47.2653 -122.8589 356° North 97 112 4,000 49 Level Seattle Center
Wed 02:30:22 PM 47.2917 -122.8619 356° North 96 110 4,100 -98 Climbing Seattle Center
Wed 02:31:24 PM 47.3189 -122.8547 10° North 93 107 3,800 -439 Descending Seattle Center
Wed 02:32:25 PM 47.3461 -122.8489 North 99 114 3,200 -537 Descending Seattle Center
Wed 02:33:27 PM 47.3728 -122.8467 North 97 112 2,700 -488 Descending Seattle Center
Wed 02:34:28 PM 47.3994 -122.8419 North 97 112 2,200 -439 Descending Seattle Center
Wed 02:35:30 PM 47.4256 -122.8261 22° Northeast 96 110 1,800 -439 Descending Seattle Center
Wed 02:36:31 PM 47.4478 -122.8039 34° Northeast 96 110 1,300 -390 Descending Seattle Center
Wed 02:37:33 PM 47.4717 -122.7808 33° Northeast 101 116 1,000 -146 Descending Seattle Center
Wed 02:38:34 PM 47.4861 -122.7503 55° Northeast 101 116 1,000  Level Seattle Center

Login

Don't have an account? Register now (free) for customized features, flight alerts, and more!